sensor_id;sensor_type;location;lat;lon;timestamp;temperature;humidity
20726;DHT22;10524;48.132;8.518;2023-07-13T00:01:13;16.20;99.90
20726;DHT22;10524;48.132;8.518;2023-07-13T00:03:38;16.20;99.90
20726;DHT22;10524;48.132;8.518;2023-07-13T00:06:07;16.20;99.90
20726;DHT22;10524;48.132;8.518;2023-07-13T00:08:33;16.20;99.90
20726;DHT22;10524;48.132;8.518;2023-07-13T00:11:03;16.20;99.90
20726;DHT22;10524;48.132;8.518;2023-07-13T00:13:29;16.30;99.90
20726;DHT22;10524;48.132;8.518;2023-07-13T00:15:56;16.30;99.90
20726;DHT22;10524;48.132;8.518;2023-07-13T00:18:22;16.40;99.90
20726;DHT22;10524;48.132;8.518;2023-07-13T00:20:48;16.40;99.90
20726;DHT22;10524;48.132;8.518;2023-07-13T00:23:14;16.40;99.90
20726;DHT22;10524;48.132;8.518;2023-07-13T00:25:40;16.30;99.90
20726;DHT22;10524;48.132;8.518;2023-07-13T00:28:06;16.30;99.90
20726;DHT22;10524;48.132;8.518;2023-07-13T00:30:32;16.30;99.90
20726;DHT22;10524;48.132;8.518;2023-07-13T00:32:57;16.40;99.90
20726;DHT22;10524;48.132;8.518;2023-07-13T00:35:23;16.30;99.90
20726;DHT22;10524;48.132;8.518;2023-07-13T00:37:49;16.30;99.90
20726;DHT22;10524;48.132;8.518;2023-07-13T00:40:16;16.20;99.90
20726;DHT22;10524;48.132;8.518;2023-07-13T00:42:42;16.10;99.90
20726;DHT22;10524;48.132;8.518;2023-07-13T00:47:55;15.80;99.90
20726;DHT22;10524;48.132;8.518;2023-07-13T00:50:23;15.70;99.90
20726;DHT22;10524;48.132;8.518;2023-07-13T00:52:52;15.70;99.90
20726;DHT22;10524;48.132;8.518;2023-07-13T00:55:20;15.70;99.90
20726;DHT22;10524;48.132;8.518;2023-07-13T00:57:46;15.70;99.90
20726;DHT22;10524;48.132;8.518;2023-07-13T01:00:13;15.80;99.90
20726;DHT22;10524;48.132;8.518;2023-07-13T01:02:41;15.90;99.90
20726;DHT22;10524;48.132;8.518;2023-07-13T01:05:15;16.00;99.90
20726;DHT22;10524;48.132;8.518;2023-07-13T01:07:43;16.10;99.90
20726;DHT22;10524;48.132;8.518;2023-07-13T01:10:11;16.10;99.90
20726;DHT22;10524;48.132;8.518;2023-07-13T01:12:36;16.20;99.90
20726;DHT22;10524;48.132;8.518;2023-07-13T01:15:03;16.10;99.90
20726;DHT22;10524;48.132;8.518;2023-07-13T01:17:31;16.00;99.90
20726;DHT22;10524;48.132;8.518;2023-07-13T01:19:58;15.90;99.90
20726;DHT22;10524;48.132;8.518;2023-07-13T01:22:24;15.80;99.90
20726;DHT22;10524;48.132;8.518;2023-07-13T01:24:52;15.70;99.90
20726;DHT22;10524;48.132;8.518;2023-07-13T01:27:24;15.70;99.90
20726;DHT22;10524;48.132;8.518;2023-07-13T01:29:51;15.70;99.90
20726;DHT22;10524;48.132;8.518;2023-07-13T01:32:20;15.70;99.90
20726;DHT22;10524;48.132;8.518;2023-07-13T01:34:53;15.70;99.90
20726;DHT22;10524;48.132;8.518;2023-07-13T01:37:23;15.70;99.90
20726;DHT22;10524;48.132;8.518;2023-07-13T01:39:49;15.60;99.90
20726;DHT22;10524;48.132;8.518;2023-07-13T01:42:14;15.50;99.90
20726;DHT22;10524;48.132;8.518;2023-07-13T01:44:40;15.30;99.90
20726;DHT22;10524;48.132;8.518;2023-07-13T01:47:06;15.10;99.90
20726;DHT22;10524;48.132;8.518;2023-07-13T01:49:32;15.00;99.90
20726;DHT22;10524;48.132;8.518;2023-07-13T01:51:57;14.90;99.90
20726;DHT22;10524;48.132;8.518;2023-07-13T01:54:23;14.70;99.90
20726;DHT22;10524;48.132;8.518;2023-07-13T01:56:49;14.60;99.90
20726;DHT22;10524;48.132;8.518;2023-07-13T01:59:14;14.70;99.90
20726;DHT22;10524;48.132;8.518;2023-07-13T02:01:40;14.80;99.90
20726;DHT22;10524;48.132;8.518;2023-07-13T02:04:05;14.80;99.90
20726;DHT22;10524;48.132;8.518;2023-07-13T02:06:31;14.80;99.90
20726;DHT22;10524;48.132;8.518;2023-07-13T02:08:57;14.90;99.90
20726;DHT22;10524;48.132;8.518;2023-07-13T02:11:23;14.90;99.90
20726;DHT22;10524;48.132;8.518;2023-07-13T02:13:50;14.80;99.90
20726;DHT22;10524;48.132;8.518;2023-07-13T02:16:16;14.80;99.90
20726;DHT22;10524;48.132;8.518;2023-07-13T02:18:41;14.70;99.90
20726;DHT22;10524;48.132;8.518;2023-07-13T02:21:07;14.70;99.90
20726;DHT22;10524;48.132;8.518;2023-07-13T02:23:32;14.80;99.90
20726;DHT22;10524;48.132;8.518;2023-07-13T02:25:59;14.90;99.90
20726;DHT22;10524;48.132;8.518;2023-07-13T02:28:25;15.00;99.90
20726;DHT22;10524;48.132;8.518;2023-07-13T02:30:51;15.10;99.90
20726;DHT22;10524;48.132;8.518;2023-07-13T02:33:17;15.20;99.90
20726;DHT22;10524;48.132;8.518;2023-07-13T02:35:43;15.30;99.90
20726;DHT22;10524;48.132;8.518;2023-07-13T02:38:08;15.30;99.90
20726;DHT22;10524;48.132;8.518;2023-07-13T02:40:34;15.40;99.90
20726;DHT22;10524;48.132;8.518;2023-07-13T02:43:01;15.40;99.90
20726;DHT22;10524;48.132;8.518;2023-07-13T02:45:27;15.40;99.90
20726;DHT22;10524;48.132;8.518;2023-07-13T02:47:54;15.30;99.90
20726;DHT22;10524;48.132;8.518;2023-07-13T02:50:20;15.20;99.90
20726;DHT22;10524;48.132;8.518;2023-07-13T02:52:45;15.00;99.90
20726;DHT22;10524;48.132;8.518;2023-07-13T02:55:11;14.90;99.90
20726;DHT22;10524;48.132;8.518;2023-07-13T02:57:37;14.70;99.90
20726;DHT22;10524;48.132;8.518;2023-07-13T03:00:03;14.50;99.90
20726;DHT22;10524;48.132;8.518;2023-07-13T03:02:33;14.30;99.90
20726;DHT22;10524;48.132;8.518;2023-07-13T03:04:59;14.10;99.90
20726;DHT22;10524;48.132;8.518;2023-07-13T03:07:24;13.90;99.90
20726;DHT22;10524;48.132;8.518;2023-07-13T03:09:55;13.80;99.90
20726;DHT22;10524;48.132;8.518;2023-07-13T03:12:22;13.70;99.90
20726;DHT22;10524;48.132;8.518;2023-07-13T03:14:47;13.80;99.90
20726;DHT22;10524;48.132;8.518;2023-07-13T03:17:13;13.70;99.90
20726;DHT22;10524;48.132;8.518;2023-07-13T03:19:38;13.70;99.90
20726;DHT22;10524;48.132;8.518;2023-07-13T03:22:04;13.70;99.90
20726;DHT22;10524;48.132;8.518;2023-07-13T03:24:32;13.70;99.90
20726;DHT22;10524;48.132;8.518;2023-07-13T03:26:57;13.70;99.90
20726;DHT22;10524;48.132;8.518;2023-07-13T03:29:23;13.70;99.90
20726;DHT22;10524;48.132;8.518;2023-07-13T03:31:48;13.70;99.90
20726;DHT22;10524;48.132;8.518;2023-07-13T03:34:14;13.70;99.90
20726;DHT22;10524;48.132;8.518;2023-07-13T03:36:40;13.70;99.90
20726;DHT22;10524;48.132;8.518;2023-07-13T03:39:05;13.90;99.90
20726;DHT22;10524;48.132;8.518;2023-07-13T03:41:33;14.00;99.90
20726;DHT22;10524;48.132;8.518;2023-07-13T03:43:59;14.00;99.90
20726;DHT22;10524;48.132;8.518;2023-07-13T03:46:25;14.00;99.90
20726;DHT22;10524;48.132;8.518;2023-07-13T03:48:50;14.00;99.90
20726;DHT22;10524;48.132;8.518;2023-07-13T03:51:16;13.90;99.90
20726;DHT22;10524;48.132;8.518;2023-07-13T03:53:44;13.90;99.90
20726;DHT22;10524;48.132;8.518;2023-07-13T03:56:10;13.90;99.90
20726;DHT22;10524;48.132;8.518;2023-07-13T03:58:38;13.90;99.90
20726;DHT22;10524;48.132;8.518;2023-07-13T04:01:05;13.90;99.90
20726;DHT22;10524;48.132;8.518;2023-07-13T04:03:32;13.90;99.90
20726;DHT22;10524;48.132;8.518;2023-07-13T04:06:00;13.90;99.90
20726;DHT22;10524;48.132;8.518;2023-07-13T04:08:30;14.00;99.90
20726;DHT22;10524;48.132;8.518;2023-07-13T04:10:57;14.00;99.90
20726;DHT22;10524;48.132;8.518;2023-07-13T04:13:23;14.10;99.90
20726;DHT22;10524;48.132;8.518;2023-07-13T04:15:50;14.30;99.90
20726;DHT22;10524;48.132;8.518;2023-07-13T04:18:15;14.40;99.90
20726;DHT22;10524;48.132;8.518;2023-07-13T04:20:41;14.50;99.90
20726;DHT22;10524;48.132;8.518;2023-07-13T04:23:07;14.60;99.90
20726;DHT22;10524;48.132;8.518;2023-07-13T04:25:33;14.70;99.90
20726;DHT22;10524;48.132;8.518;2023-07-13T04:27:58;14.80;99.90
20726;DHT22;10524;48.132;8.518;2023-07-13T04:30:24;14.80;99.90
20726;DHT22;10524;48.132;8.518;2023-07-13T04:32:51;14.70;99.90
20726;DHT22;10524;48.132;8.518;2023-07-13T04:35:18;14.70;99.90
20726;DHT22;10524;48.132;8.518;2023-07-13T04:37:49;14.70;99.90
20726;DHT22;10524;48.132;8.518;2023-07-13T04:40:18;14.70;99.90
20726;DHT22;10524;48.132;8.518;2023-07-13T04:42:44;14.70;99.90
20726;DHT22;10524;48.132;8.518;2023-07-13T04:45:11;14.70;99.90
20726;DHT22;10524;48.132;8.518;2023-07-13T04:47:36;14.80;99.90
20726;DHT22;10524;48.132;8.518;2023-07-13T04:50:02;15.00;99.90
20726;DHT22;10524;48.132;8.518;2023-07-13T04:52:28;15.00;99.90
20726;DHT22;10524;48.132;8.518;2023-07-13T04:54:54;15.00;99.90
20726;DHT22;10524;48.132;8.518;2023-07-13T04:57:20;14.90;99.90
20726;DHT22;10524;48.132;8.518;2023-07-13T04:59:45;14.90;99.90
20726;DHT22;10524;48.132;8.518;2023-07-13T05:02:11;14.90;99.90
20726;DHT22;10524;48.132;8.518;2023-07-13T05:04:36;15.10;99.90
20726;DHT22;10524;48.132;8.518;2023-07-13T05:07:02;15.10;99.90
20726;DHT22;10524;48.132;8.518;2023-07-13T05:09:28;15.20;99.90
20726;DHT22;10524;48.132;8.518;2023-07-13T05:11:53;15.50;99.90
20726;DHT22;10524;48.132;8.518;2023-07-13T05:14:19;15.80;99.90
20726;DHT22;10524;48.132;8.518;2023-07-13T05:16:44;16.00;99.90
20726;DHT22;10524;48.132;8.518;2023-07-13T05:19:12;16.20;99.90
20726;DHT22;10524;48.132;8.518;2023-07-13T05:21:38;16.70;99.90
20726;DHT22;10524;48.132;8.518;2023-07-13T05:24:04;17.50;99.90
20726;DHT22;10524;48.132;8.518;2023-07-13T05:26:30;17.80;99.90
20726;DHT22;10524;48.132;8.518;2023-07-13T05:28:56;18.10;99.90
20726;DHT22;10524;48.132;8.518;2023-07-13T05:31:21;18.60;99.90
20726;DHT22;10524;48.132;8.518;2023-07-13T05:33:47;18.70;99.90
20726;DHT22;10524;48.132;8.518;2023-07-13T05:36:12;18.60;99.90
20726;DHT22;10524;48.132;8.518;2023-07-13T05:38:38;18.70;99.90
20726;DHT22;10524;48.132;8.518;2023-07-13T05:41:04;19.00;99.90
20726;DHT22;10524;48.132;8.518;2023-07-13T05:43:29;19.10;99.90
20726;DHT22;10524;48.132;8.518;2023-07-13T05:45:56;19.00;99.90
20726;DHT22;10524;48.132;8.518;2023-07-13T05:48:22;18.90;99.90
20726;DHT22;10524;48.132;8.518;2023-07-13T05:50:48;18.70;99.90
20726;DHT22;10524;48.132;8.518;2023-07-13T05:53:15;18.60;99.90
20726;DHT22;10524;48.132;8.518;2023-07-13T05:55:42;18.60;99.90
20726;DHT22;10524;48.132;8.518;2023-07-13T05:58:08;18.80;99.90
20726;DHT22;10524;48.132;8.518;2023-07-13T06:00:34;19.50;99.90
20726;DHT22;10524;48.132;8.518;2023-07-13T06:03:00;20.30;99.90
20726;DHT22;10524;48.132;8.518;2023-07-13T06:05:26;20.60;99.90
20726;DHT22;10524;48.132;8.518;2023-07-13T06:07:52;20.80;99.90
20726;DHT22;10524;48.132;8.518;2023-07-13T06:10:18;20.70;99.90
20726;DHT22;10524;48.132;8.518;2023-07-13T06:12:44;21.10;99.90
20726;DHT22;10524;48.132;8.518;2023-07-13T06:15:09;22.60;99.90
20726;DHT22;10524;48.132;8.518;2023-07-13T06:17:35;24.40;99.90
20726;DHT22;10524;48.132;8.518;2023-07-13T06:20:01;25.90;99.90
20726;DHT22;10524;48.132;8.518;2023-07-13T06:22:27;26.30;99.90
20726;DHT22;10524;48.132;8.518;2023-07-13T06:24:53;27.40;99.90
20726;DHT22;10524;48.132;8.518;2023-07-13T06:27:18;28.70;99.90
20726;DHT22;10524;48.132;8.518;2023-07-13T06:29:44;28.00;99.90
20726;DHT22;10524;48.132;8.518;2023-07-13T06:32:10;27.80;99.90
20726;DHT22;10524;48.132;8.518;2023-07-13T06:34:36;27.50;99.90
20726;DHT22;10524;48.132;8.518;2023-07-13T06:37:02;26.50;99.90
20726;DHT22;10524;48.132;8.518;2023-07-13T06:39:27;25.70;99.90
20726;DHT22;10524;48.132;8.518;2023-07-13T06:41:53;25.60;99.90
20726;DHT22;10524;48.132;8.518;2023-07-13T06:44:19;26.60;99.90
20726;DHT22;10524;48.132;8.518;2023-07-13T06:46:44;27.30;99.90
20726;DHT22;10524;48.132;8.518;2023-07-13T06:49:10;28.60;99.90
20726;DHT22;10524;48.132;8.518;2023-07-13T06:51:36;29.70;99.90
20726;DHT22;10524;48.132;8.518;2023-07-13T06:54:02;29.70;99.90
20726;DHT22;10524;48.132;8.518;2023-07-13T06:56:28;30.60;99.90
20726;DHT22;10524;48.132;8.518;2023-07-13T06:58:53;30.00;99.00
20726;DHT22;10524;48.132;8.518;2023-07-13T07:01:19;29.10;99.70
20726;DHT22;10524;48.132;8.518;2023-07-13T07:03:44;30.00;99.70
20726;DHT22;10524;48.132;8.518;2023-07-13T07:06:17;31.20;98.60
20726;DHT22;10524;48.132;8.518;2023-07-13T07:08:43;31.10;98.30
20726;DHT22;10524;48.132;8.518;2023-07-13T07:11:15;30.70;97.70
20726;DHT22;10524;48.132;8.518;2023-07-13T07:13:41;30.30;97.40
20726;DHT22;10524;48.132;8.518;2023-07-13T07:16:07;31.00;97.20
20726;DHT22;10524;48.132;8.518;2023-07-13T07:18:34;30.60;97.20
20726;DHT22;10524;48.132;8.518;2023-07-13T07:21:00;31.70;96.50
20726;DHT22;10524;48.132;8.518;2023-07-13T07:23:26;32.20;95.20
20726;DHT22;10524;48.132;8.518;2023-07-13T07:25:51;31.90;94.90
20726;DHT22;10524;48.132;8.518;2023-07-13T07:28:17;30.90;95.00
20726;DHT22;10524;48.132;8.518;2023-07-13T07:30:46;31.00;95.40
20726;DHT22;10524;48.132;8.518;2023-07-13T07:33:12;32.10;94.90
20726;DHT22;10524;48.132;8.518;2023-07-13T07:35:37;33.00;94.10
20726;DHT22;10524;48.132;8.518;2023-07-13T07:38:03;34.00;93.00
20726;DHT22;10524;48.132;8.518;2023-07-13T07:40:29;34.60;92.40
20726;DHT22;10524;48.132;8.518;2023-07-13T07:42:55;34.70;92.70
20726;DHT22;10524;48.132;8.518;2023-07-13T07:45:21;34.10;91.80
20726;DHT22;10524;48.132;8.518;2023-07-13T07:47:47;33.20;92.30
20726;DHT22;10524;48.132;8.518;2023-07-13T07:50:13;32.90;92.70
20726;DHT22;10524;48.132;8.518;2023-07-13T07:52:38;33.20;92.50
20726;DHT22;10524;48.132;8.518;2023-07-13T07:55:06;33.10;92.90
20726;DHT22;10524;48.132;8.518;2023-07-13T07:57:32;32.50;92.30
20726;DHT22;10524;48.132;8.518;2023-07-13T07:59:58;33.20;92.30
20726;DHT22;10524;48.132;8.518;2023-07-13T08:02:24;33.20;92.00
20726;DHT22;10524;48.132;8.518;2023-07-13T08:04:50;32.60;92.50
20726;DHT22;10524;48.132;8.518;2023-07-13T08:07:16;32.50;92.50
20726;DHT22;10524;48.132;8.518;2023-07-13T08:09:42;32.40;92.60
20726;DHT22;10524;48.132;8.518;2023-07-13T08:12:07;33.20;91.30
20726;DHT22;10524;48.132;8.518;2023-07-13T08:14:33;32.30;92.20
20726;DHT22;10524;48.132;8.518;2023-07-13T08:16:59;31.40;92.30
20726;DHT22;10524;48.132;8.518;2023-07-13T08:19:24;32.20;92.30
20726;DHT22;10524;48.132;8.518;2023-07-13T08:21:50;32.70;92.30
20726;DHT22;10524;48.132;8.518;2023-07-13T08:24:16;32.50;92.00
20726;DHT22;10524;48.132;8.518;2023-07-13T08:26:44;32.30;92.10
20726;DHT22;10524;48.132;8.518;2023-07-13T08:29:10;33.20;91.70
20726;DHT22;10524;48.132;8.518;2023-07-13T08:31:36;32.40;91.40
20726;DHT22;10524;48.132;8.518;2023-07-13T08:34:02;31.00;92.20
20726;DHT22;10524;48.132;8.518;2023-07-13T08:36:28;29.90;93.00
20726;DHT22;10524;48.132;8.518;2023-07-13T08:38:54;29.60;93.20
20726;DHT22;10524;48.132;8.518;2023-07-13T08:41:20;29.50;93.50
20726;DHT22;10524;48.132;8.518;2023-07-13T08:43:52;28.80;94.20
20726;DHT22;10524;48.132;8.518;2023-07-13T08:46:36;28.20;95.10
20726;DHT22;10524;48.132;8.518;2023-07-13T08:49:15;28.00;95.30
20726;DHT22;10524;48.132;8.518;2023-07-13T08:51:55;28.40;94.80
20726;DHT22;10524;48.132;8.518;2023-07-13T08:54:28;27.60;94.90
20726;DHT22;10524;48.132;8.518;2023-07-13T08:56:57;28.60;95.10
20726;DHT22;10524;48.132;8.518;2023-07-13T08:59:27;29.70;94.50
20726;DHT22;10524;48.132;8.518;2023-07-13T09:04:52;27.60;94.60
20726;DHT22;10524;48.132;8.518;2023-07-13T09:07:28;26.70;95.10
20726;DHT22;10524;48.132;8.518;2023-07-13T09:10:10;25.80;96.10
20726;DHT22;10524;48.132;8.518;2023-07-13T09:12:44;25.90;96.40
20726;DHT22;10524;48.132;8.518;2023-07-13T09:15:31;29.00;96.00
20726;DHT22;10524;48.132;8.518;2023-07-13T09:18:16;31.20;93.20
20726;DHT22;10524;48.132;8.518;2023-07-13T09:20:49;32.40;92.60
20726;DHT22;10524;48.132;8.518;2023-07-13T09:23:19;31.20;93.00
20726;DHT22;10524;48.132;8.518;2023-07-13T09:25:47;28.90;94.30
20726;DHT22;10524;48.132;8.518;2023-07-13T09:28:49;26.50;95.80
20726;DHT22;10524;48.132;8.518;2023-07-13T09:31:32;25.50;96.60
20726;DHT22;10524;48.132;8.518;2023-07-13T09:34:01;24.80;97.70
20726;DHT22;10524;48.132;8.518;2023-07-13T09:36:30;25.60;97.10
20726;DHT22;10524;48.132;8.518;2023-07-13T09:39:18;27.40;95.70
20726;DHT22;10524;48.132;8.518;2023-07-13T09:44:33;31.00;93.40
20726;DHT22;10524;48.132;8.518;2023-07-13T09:46:59;31.20;93.30
20726;DHT22;10524;48.132;8.518;2023-07-13T09:49:33;32.30;93.10
20726;DHT22;10524;48.132;8.518;2023-07-13T09:52:03;30.70;92.70
20726;DHT22;10524;48.132;8.518;2023-07-13T09:54:32;30.50;93.10
20726;DHT22;10524;48.132;8.518;2023-07-13T09:56:59;30.20;93.20
20726;DHT22;10524;48.132;8.518;2023-07-13T09:59:37;28.70;94.00
20726;DHT22;10524;48.132;8.518;2023-07-13T10:02:28;28.20;94.80
20726;DHT22;10524;48.132;8.518;2023-07-13T10:05:00;27.90;94.40
20726;DHT22;10524;48.132;8.518;2023-07-13T10:07:27;27.50;94.70
20726;DHT22;10524;48.132;8.518;2023-07-13T10:10:00;28.30;94.20
20726;DHT22;10524;48.132;8.518;2023-07-13T10:12:29;30.70;93.20
20726;DHT22;10524;48.132;8.518;2023-07-13T10:14:58;30.80;92.00
20726;DHT22;10524;48.132;8.518;2023-07-13T10:17:31;30.00;92.70
20726;DHT22;10524;48.132;8.518;2023-07-13T10:20:03;29.40;92.90
20726;DHT22;10524;48.132;8.518;2023-07-13T10:22:46;28.20;93.60
20726;DHT22;10524;48.132;8.518;2023-07-13T10:25:18;27.20;94.10
20726;DHT22;10524;48.132;8.518;2023-07-13T10:27:44;26.90;94.90
20726;DHT22;10524;48.132;8.518;2023-07-13T10:30:20;28.50;94.10
20726;DHT22;10524;48.132;8.518;2023-07-13T10:32:48;28.80;93.30
20726;DHT22;10524;48.132;8.518;2023-07-13T10:35:17;28.00;93.10
20726;DHT22;10524;48.132;8.518;2023-07-13T10:37:52;27.80;93.90
20726;DHT22;10524;48.132;8.518;2023-07-13T10:41:01;27.50;93.40
20726;DHT22;10524;48.132;8.518;2023-07-13T10:43:25;26.90;94.40
20726;DHT22;10524;48.132;8.518;2023-07-13T10:45:53;27.70;94.30
20726;DHT22;10524;48.132;8.518;2023-07-13T10:48:21;27.80;93.90
20726;DHT22;10524;48.132;8.518;2023-07-13T10:50:50;28.20;94.00
20726;DHT22;10524;48.132;8.518;2023-07-13T10:53:32;29.10;93.40
20726;DHT22;10524;48.132;8.518;2023-07-13T10:56:00;31.00;93.00
20726;DHT22;10524;48.132;8.518;2023-07-13T10:58:36;31.50;91.30
20726;DHT22;10524;48.132;8.518;2023-07-13T11:01:09;32.70;91.60
20726;DHT22;10524;48.132;8.518;2023-07-13T11:03:58;33.00;91.30
20726;DHT22;10524;48.132;8.518;2023-07-13T11:08:56;35.60;89.80
20726;DHT22;10524;48.132;8.518;2023-07-13T11:18:54;32.80;89.40
20726;DHT22;10524;48.132;8.518;2023-07-13T11:21:34;33.70;88.80
20726;DHT22;10524;48.132;8.518;2023-07-13T11:24:17;32.10;88.50
20726;DHT22;10524;48.132;8.518;2023-07-13T11:26:51;32.50;90.00
20726;DHT22;10524;48.132;8.518;2023-07-13T11:29:33;34.60;87.20
20726;DHT22;10524;48.132;8.518;2023-07-13T11:32:01;36.10;86.40
20726;DHT22;10524;48.132;8.518;2023-07-13T11:34:42;33.40;85.00
20726;DHT22;10524;48.132;8.518;2023-07-13T11:37:12;31.20;86.80
20726;DHT22;10524;48.132;8.518;2023-07-13T11:39:42;30.30;88.10
20726;DHT22;10524;48.132;8.518;2023-07-13T11:42:12;31.20;90.20
20726;DHT22;10524;48.132;8.518;2023-07-13T11:44:43;32.50;88.70
20726;DHT22;10524;48.132;8.518;2023-07-13T11:47:17;32.10;86.60
20726;DHT22;10524;48.132;8.518;2023-07-13T11:49:49;33.90;86.70
20726;DHT22;10524;48.132;8.518;2023-07-13T11:52:21;35.10;84.40
20726;DHT22;10524;48.132;8.518;2023-07-13T11:54:55;34.70;84.90
20726;DHT22;10524;48.132;8.518;2023-07-13T11:57:34;36.10;82.10
20726;DHT22;10524;48.132;8.518;2023-07-13T12:00:11;36.70;82.30
20726;DHT22;10524;48.132;8.518;2023-07-13T12:02:40;34.30;83.90
20726;DHT22;10524;48.132;8.518;2023-07-13T12:05:11;33.70;85.00
20726;DHT22;10524;48.132;8.518;2023-07-13T12:07:38;34.80;83.50
20726;DHT22;10524;48.132;8.518;2023-07-13T12:10:27;33.30;83.20
20726;DHT22;10524;48.132;8.518;2023-07-13T12:13:12;31.60;85.30
20726;DHT22;10524;48.132;8.518;2023-07-13T12:15:46;29.80;87.10
20726;DHT22;10524;48.132;8.518;2023-07-13T12:18:18;29.60;87.80
20726;DHT22;10524;48.132;8.518;2023-07-13T12:20:45;31.90;87.40
20726;DHT22;10524;48.132;8.518;2023-07-13T12:23:22;32.40;84.50
20726;DHT22;10524;48.132;8.518;2023-07-13T12:25:49;32.50;83.70
20726;DHT22;10524;48.132;8.518;2023-07-13T12:28:28;31.90;83.90
20726;DHT22;10524;48.132;8.518;2023-07-13T12:31:05;31.40;84.50
20726;DHT22;10524;48.132;8.518;2023-07-13T12:33:33;31.50;86.60
20726;DHT22;10524;48.132;8.518;2023-07-13T12:36:04;30.40;87.30
20726;DHT22;10524;48.132;8.518;2023-07-13T12:38:31;29.50;88.90
20726;DHT22;10524;48.132;8.518;2023-07-13T12:40:57;31.30;88.40
20726;DHT22;10524;48.132;8.518;2023-07-13T12:43:25;31.30;87.90
20726;DHT22;10524;48.132;8.518;2023-07-13T12:46:14;30.00;89.40
20726;DHT22;10524;48.132;8.518;2023-07-13T12:48:42;28.60;90.90
20726;DHT22;10524;48.132;8.518;2023-07-13T12:51:12;28.00;90.90
20726;DHT22;10524;48.132;8.518;2023-07-13T12:53:48;28.10;91.30
20726;DHT22;10524;48.132;8.518;2023-07-13T12:56:21;30.20;89.10
20726;DHT22;10524;48.132;8.518;2023-07-13T12:58:48;30.10;87.40
20726;DHT22;10524;48.132;8.518;2023-07-13T13:01:23;30.00;87.20
20726;DHT22;10524;48.132;8.518;2023-07-13T13:03:53;29.80;86.00
20726;DHT22;10524;48.132;8.518;2023-07-13T13:08:50;31.50;89.20
20726;DHT22;10524;48.132;8.518;2023-07-13T13:11:16;32.30;87.80
20726;DHT22;10524;48.132;8.518;2023-07-13T13:13:42;32.70;86.40
20726;DHT22;10524;48.132;8.518;2023-07-13T13:18:40;33.70;85.30
20726;DHT22;10524;48.132;8.518;2023-07-13T13:21:05;34.40;86.00
20726;DHT22;10524;48.132;8.518;2023-07-13T13:23:31;35.20;84.90
20726;DHT22;10524;48.132;8.518;2023-07-13T13:25:57;35.10;84.00
20726;DHT22;10524;48.132;8.518;2023-07-13T13:28:23;34.60;83.30
20726;DHT22;10524;48.132;8.518;2023-07-13T13:30:50;34.10;81.60
20726;DHT22;10524;48.132;8.518;2023-07-13T13:33:18;34.50;78.70
20726;DHT22;10524;48.132;8.518;2023-07-13T13:35:45;34.90;78.90
20726;DHT22;10524;48.132;8.518;2023-07-13T13:40:37;34.30;82.00
20726;DHT22;10524;48.132;8.518;2023-07-13T13:43:09;34.60;83.40
20726;DHT22;10524;48.132;8.518;2023-07-13T13:45:39;34.10;84.30
20726;DHT22;10524;48.132;8.518;2023-07-13T13:48:05;33.40;84.40
20726;DHT22;10524;48.132;8.518;2023-07-13T13:50:31;33.10;85.50
20726;DHT22;10524;48.132;8.518;2023-07-13T13:52:56;33.40;83.30
20726;DHT22;10524;48.132;8.518;2023-07-13T13:55:22;33.50;82.70
20726;DHT22;10524;48.132;8.518;2023-07-13T13:57:50;34.20;84.20
20726;DHT22;10524;48.132;8.518;2023-07-13T14:00:16;33.40;85.00
20726;DHT22;10524;48.132;8.518;2023-07-13T14:02:47;32.40;84.70
20726;DHT22;10524;48.132;8.518;2023-07-13T14:05:14;30.80;86.90
20726;DHT22;10524;48.132;8.518;2023-07-13T14:07:41;29.50;88.10
20726;DHT22;10524;48.132;8.518;2023-07-13T14:10:13;29.20;90.20
20726;DHT22;10524;48.132;8.518;2023-07-13T14:12:44;29.20;90.40
20726;DHT22;10524;48.132;8.518;2023-07-13T14:15:23;30.40;89.50
20726;DHT22;10524;48.132;8.518;2023-07-13T14:17:49;31.10;89.00
20726;DHT22;10524;48.132;8.518;2023-07-13T14:20:16;31.10;87.80
20726;DHT22;10524;48.132;8.518;2023-07-13T14:22:42;31.80;87.50
20726;DHT22;10524;48.132;8.518;2023-07-13T14:25:14;32.10;88.10
20726;DHT22;10524;48.132;8.518;2023-07-13T14:27:41;30.90;88.70
20726;DHT22;10524;48.132;8.518;2023-07-13T14:30:21;30.20;89.70
20726;DHT22;10524;48.132;8.518;2023-07-13T14:32:47;29.70;90.30
20726;DHT22;10524;48.132;8.518;2023-07-13T14:35:15;28.40;90.90
20726;DHT22;10524;48.132;8.518;2023-07-13T14:37:42;27.40;91.80
20726;DHT22;10524;48.132;8.518;2023-07-13T14:40:16;28.50;91.70
20726;DHT22;10524;48.132;8.518;2023-07-13T14:42:42;29.90;90.70
20726;DHT22;10524;48.132;8.518;2023-07-13T14:45:16;30.50;90.20
20726;DHT22;10524;48.132;8.518;2023-07-13T14:47:43;30.70;90.10
20726;DHT22;10524;48.132;8.518;2023-07-13T14:50:17;29.80;90.40
20726;DHT22;10524;48.132;8.518;2023-07-13T14:52:45;28.90;90.80
20726;DHT22;10524;48.132;8.518;2023-07-13T14:55:18;27.80;91.90
20726;DHT22;10524;48.132;8.518;2023-07-13T14:57:44;26.60;92.40
20726;DHT22;10524;48.132;8.518;2023-07-13T15:00:15;26.50;92.70
20726;DHT22;10524;48.132;8.518;2023-07-13T15:03:00;27.60;92.50
20726;DHT22;10524;48.132;8.518;2023-07-13T15:05:31;28.80;91.50
20726;DHT22;10524;48.132;8.518;2023-07-13T15:08:02;30.00;90.70
20726;DHT22;10524;48.132;8.518;2023-07-13T15:10:33;29.90;90.50
20726;DHT22;10524;48.132;8.518;2023-07-13T15:13:00;29.80;90.60
20726;DHT22;10524;48.132;8.518;2023-07-13T15:15:40;30.00;90.50
20726;DHT22;10524;48.132;8.518;2023-07-13T15:18:11;29.40;90.90
20726;DHT22;10524;48.132;8.518;2023-07-13T15:20:37;28.60;91.40
20726;DHT22;10524;48.132;8.518;2023-07-13T15:23:03;28.00;92.10
20726;DHT22;10524;48.132;8.518;2023-07-13T15:25:30;27.90;92.10
20726;DHT22;10524;48.132;8.518;2023-07-13T15:27:57;27.70;92.40
20726;DHT22;10524;48.132;8.518;2023-07-13T15:30:26;27.60;92.30
20726;DHT22;10524;48.132;8.518;2023-07-13T15:32:52;28.20;91.70
20726;DHT22;10524;48.132;8.518;2023-07-13T15:35:24;28.30;91.80
20726;DHT22;10524;48.132;8.518;2023-07-13T15:37:50;28.00;92.20
20726;DHT22;10524;48.132;8.518;2023-07-13T15:40:17;27.20;92.60
20726;DHT22;10524;48.132;8.518;2023-07-13T15:42:44;26.40;93.40
20726;DHT22;10524;48.132;8.518;2023-07-13T15:45:21;26.30;93.50
20726;DHT22;10524;48.132;8.518;2023-07-13T15:47:48;26.70;93.30
20726;DHT22;10524;48.132;8.518;2023-07-13T15:50:16;27.30;93.10
20726;DHT22;10524;48.132;8.518;2023-07-13T15:52:44;28.20;92.40
20726;DHT22;10524;48.132;8.518;2023-07-13T15:55:12;28.70;91.90
20726;DHT22;10524;48.132;8.518;2023-07-13T15:57:39;28.20;92.00
20726;DHT22;10524;48.132;8.518;2023-07-13T16:02:43;28.30;91.90
20726;DHT22;10524;48.132;8.518;2023-07-13T16:05:08;28.50;91.70
20726;DHT22;10524;48.132;8.518;2023-07-13T16:07:34;28.30;91.90